sensor_id;sensor_type;location;lat;lon;timestamp;P1;durP1;ratioP1;P2;durP2;ratioP2
13975;SDS011;7062;49.792;9.946;2023-01-20T00:01:36;14.82;;;10.93;;
13975;SDS011;7062;49.792;9.946;2023-01-20T00:04:03;12.60;;;11.30;;
13975;SDS011;7062;49.792;9.946;2023-01-20T00:06:29;19.23;;;11.68;;
13975;SDS011;7062;49.792;9.946;2023-01-20T00:08:56;11.73;;;10.47;;
13975;SDS011;7062;49.792;9.946;2023-01-20T00:11:23;11.90;;;10.45;;
13975;SDS011;7062;49.792;9.946;2023-01-20T00:13:56;12.93;;;10.83;;
13975;SDS011;7062;49.792;9.946;2023-01-20T00:16:25;13.48;;;9.60;;
13975;SDS011;7062;49.792;9.946;2023-01-20T00:18:52;12.40;;;10.65;;
13975;SDS011;7062;49.792;9.946;2023-01-20T00:21:18;14.82;;;12.95;;
13975;SDS011;7062;49.792;9.946;2023-01-20T00:23:44;13.57;;;11.37;;
13975;SDS011;7062;49.792;9.946;2023-01-20T00:26:11;15.35;;;12.02;;
13975;SDS011;7062;49.792;9.946;2023-01-20T00:28:40;12.30;;;10.77;;
13975;SDS011;7062;49.792;9.946;2023-01-20T00:31:10;14.00;;;11.57;;
13975;SDS011;7062;49.792;9.946;2023-01-20T00:33:37;17.10;;;12.40;;
13975;SDS011;7062;49.792;9.946;2023-01-20T00:36:02;13.47;;;11.70;;
13975;SDS011;7062;49.792;9.946;2023-01-20T00:38:28;13.87;;;11.10;;
13975;SDS011;7062;49.792;9.946;2023-01-20T00:40:54;14.47;;;12.17;;
13975;SDS011;7062;49.792;9.946;2023-01-20T00:43:20;14.27;;;11.73;;
13975;SDS011;7062;49.792;9.946;2023-01-20T00:45:46;13.00;;;11.05;;
13975;SDS011;7062;49.792;9.946;2023-01-20T00:48:12;13.50;;;11.93;;
13975;SDS011;7062;49.792;9.946;2023-01-20T00:50:37;12.57;;;11.27;;
13975;SDS011;7062;49.792;9.946;2023-01-20T00:53:03;14.30;;;11.07;;
13975;SDS011;7062;49.792;9.946;2023-01-20T00:55:28;11.60;;;10.50;;
13975;SDS011;7062;49.792;9.946;2023-01-20T00:57:54;14.83;;;11.43;;
13975;SDS011;7062;49.792;9.946;2023-01-20T01:00:20;12.90;;;10.90;;
13975;SDS011;7062;49.792;9.946;2023-01-20T01:02:45;15.73;;;11.50;;
13975;SDS011;7062;49.792;9.946;2023-01-20T01:05:11;14.03;;;11.70;;
13975;SDS011;7062;49.792;9.946;2023-01-20T01:07:36;17.17;;;12.10;;
13975;SDS011;7062;49.792;9.946;2023-01-20T01:10:02;13.03;;;11.53;;
13975;SDS011;7062;49.792;9.946;2023-01-20T01:12:28;14.73;;;12.38;;
13975;SDS011;7062;49.792;9.946;2023-01-20T01:14:54;13.00;;;11.33;;
13975;SDS011;7062;49.792;9.946;2023-01-20T01:17:19;14.13;;;11.03;;
13975;SDS011;7062;49.792;9.946;2023-01-20T01:19:47;14.32;;;12.25;;
13975;SDS011;7062;49.792;9.946;2023-01-20T01:22:15;15.63;;;12.05;;
13975;SDS011;7062;49.792;9.946;2023-01-20T01:24:44;13.67;;;11.40;;
13975;SDS011;7062;49.792;9.946;2023-01-20T01:27:10;15.32;;;11.40;;
13975;SDS011;7062;49.792;9.946;2023-01-20T01:29:36;14.27;;;11.40;;
13975;SDS011;7062;49.792;9.946;2023-01-20T01:32:01;15.57;;;11.90;;
13975;SDS011;7062;49.792;9.946;2023-01-20T01:34:27;14.40;;;10.90;;
13975;SDS011;7062;49.792;9.946;2023-01-20T01:36:54;13.50;;;12.10;;
13975;SDS011;7062;49.792;9.946;2023-01-20T01:39:20;12.00;;;10.13;;
13975;SDS011;7062;49.792;9.946;2023-01-20T01:41:46;16.77;;;12.00;;
13975;SDS011;7062;49.792;9.946;2023-01-20T01:44:12;13.40;;;11.60;;
13975;SDS011;7062;49.792;9.946;2023-01-20T01:46:38;14.95;;;11.00;;
13975;SDS011;7062;49.792;9.946;2023-01-20T01:51:44;13.73;;;10.25;;
13975;SDS011;7062;49.792;9.946;2023-01-20T01:54:14;13.73;;;11.18;;
13975;SDS011;7062;49.792;9.946;2023-01-20T01:56:43;12.20;;;10.90;;
13975;SDS011;7062;49.792;9.946;2023-01-20T01:59:10;14.57;;;12.45;;
13975;SDS011;7062;49.792;9.946;2023-01-20T02:01:38;14.00;;;10.73;;
13975;SDS011;7062;49.792;9.946;2023-01-20T02:06:37;12.85;;;11.10;;
13975;SDS011;7062;49.792;9.946;2023-01-20T02:09:05;18.13;;;12.57;;
13975;SDS011;7062;49.792;9.946;2023-01-20T02:11:31;13.20;;;11.63;;
13975;SDS011;7062;49.792;9.946;2023-01-20T02:14:01;14.52;;;11.90;;
13975;SDS011;7062;49.792;9.946;2023-01-20T02:27:07;14.18;;;12.32;;
13975;SDS011;7062;49.792;9.946;2023-01-20T02:35:34;14.90;;;13.18;;
13975;SDS011;7062;49.792;9.946;2023-01-20T02:41:40;17.38;;;11.90;;
13975;SDS011;7062;49.792;9.946;2023-01-20T02:44:21;14.93;;;12.73;;
13975;SDS011;7062;49.792;9.946;2023-01-20T02:49:35;18.23;;;12.83;;
13975;SDS011;7062;49.792;9.946;2023-01-20T02:52:22;16.05;;;11.77;;
13975;SDS011;7062;49.792;9.946;2023-01-20T02:55:10;15.55;;;13.25;;
13975;SDS011;7062;49.792;9.946;2023-01-20T02:57:46;17.35;;;13.77;;
13975;SDS011;7062;49.792;9.946;2023-01-20T03:00:58;17.05;;;14.00;;
13975;SDS011;7062;49.792;9.946;2023-01-20T03:03:09;16.38;;;12.80;;
13975;SDS011;7062;49.792;9.946;2023-01-20T03:05:39;14.80;;;13.27;;
13975;SDS011;7062;49.792;9.946;2023-01-20T03:08:09;16.27;;;13.57;;
13975;SDS011;7062;49.792;9.946;2023-01-20T03:10:38;12.38;;;11.07;;
13975;SDS011;7062;49.792;9.946;2023-01-20T03:15:56;16.48;;;13.88;;
13975;SDS011;7062;49.792;9.946;2023-01-20T03:18:29;17.10;;;14.23;;
13975;SDS011;7062;49.792;9.946;2023-01-20T03:20:56;14.05;;;12.60;;
13975;SDS011;7062;49.792;9.946;2023-01-20T03:23:24;17.20;;;14.10;;
13975;SDS011;7062;49.792;9.946;2023-01-20T03:25:52;15.90;;;13.10;;
13975;SDS011;7062;49.792;9.946;2023-01-20T03:28:19;16.23;;;14.43;;
13975;SDS011;7062;49.792;9.946;2023-01-20T03:30:44;18.73;;;15.57;;
13975;SDS011;7062;49.792;9.946;2023-01-20T03:33:10;17.63;;;15.20;;
13975;SDS011;7062;49.792;9.946;2023-01-20T03:35:37;16.77;;;13.75;;
13975;SDS011;7062;49.792;9.946;2023-01-20T03:38:03;16.05;;;13.63;;
13975;SDS011;7062;49.792;9.946;2023-01-20T03:40:30;16.03;;;13.80;;
13975;SDS011;7062;49.792;9.946;2023-01-20T03:43:10;17.02;;;14.70;;
13975;SDS011;7062;49.792;9.946;2023-01-20T03:45:53;17.70;;;14.88;;
13975;SDS011;7062;49.792;9.946;2023-01-20T03:51:41;18.67;;;15.00;;
13975;SDS011;7062;49.792;9.946;2023-01-20T03:54:25;17.35;;;15.10;;
13975;SDS011;7062;49.792;9.946;2023-01-20T03:56:56;15.98;;;13.35;;
13975;SDS011;7062;49.792;9.946;2023-01-20T03:59:28;16.38;;;14.65;;
13975;SDS011;7062;49.792;9.946;2023-01-20T04:01:59;17.88;;;14.52;;
13975;SDS011;7062;49.792;9.946;2023-01-20T04:04:27;19.25;;;15.80;;
13975;SDS011;7062;49.792;9.946;2023-01-20T04:06:53;19.20;;;14.68;;
13975;SDS011;7062;49.792;9.946;2023-01-20T04:09:23;15.82;;;14.18;;
13975;SDS011;7062;49.792;9.946;2023-01-20T04:11:55;17.48;;;14.75;;
13975;SDS011;7062;49.792;9.946;2023-01-20T04:14:20;18.67;;;15.03;;
13975;SDS011;7062;49.792;9.946;2023-01-20T04:16:54;21.10;;;16.37;;
13975;SDS011;7062;49.792;9.946;2023-01-20T04:19:22;17.08;;;15.25;;
13975;SDS011;7062;49.792;9.946;2023-01-20T04:21:49;17.27;;;15.35;;
13975;SDS011;7062;49.792;9.946;2023-01-20T04:26:55;20.35;;;16.02;;
13975;SDS011;7062;49.792;9.946;2023-01-20T04:29:20;21.53;;;16.67;;
13975;SDS011;7062;49.792;9.946;2023-01-20T04:31:46;21.10;;;16.30;;
13975;SDS011;7062;49.792;9.946;2023-01-20T04:34:12;19.77;;;15.73;;
13975;SDS011;7062;49.792;9.946;2023-01-20T04:36:41;20.50;;;15.60;;
13975;SDS011;7062;49.792;9.946;2023-01-20T04:39:07;18.50;;;16.50;;
13975;SDS011;7062;49.792;9.946;2023-01-20T04:41:33;16.20;;;13.65;;
13975;SDS011;7062;49.792;9.946;2023-01-20T04:43:58;20.77;;;15.83;;
13975;SDS011;7062;49.792;9.946;2023-01-20T04:46:24;18.17;;;14.40;;
13975;SDS011;7062;49.792;9.946;2023-01-20T04:48:50;19.17;;;15.53;;
13975;SDS011;7062;49.792;9.946;2023-01-20T04:51:16;21.37;;;15.70;;
13975;SDS011;7062;49.792;9.946;2023-01-20T04:53:41;17.27;;;13.93;;
13975;SDS011;7062;49.792;9.946;2023-01-20T04:56:10;20.27;;;15.40;;
13975;SDS011;7062;49.792;9.946;2023-01-20T04:58:36;14.73;;;11.40;;
13975;SDS011;7062;49.792;9.946;2023-01-20T05:01:02;16.10;;;11.93;;
13975;SDS011;7062;49.792;9.946;2023-01-20T05:03:28;11.97;;;9.40;;
13975;SDS011;7062;49.792;9.946;2023-01-20T05:05:54;13.10;;;9.87;;
13975;SDS011;7062;49.792;9.946;2023-01-20T05:08:19;10.40;;;9.30;;
13975;SDS011;7062;49.792;9.946;2023-01-20T05:10:45;11.73;;;8.48;;
13975;SDS011;7062;49.792;9.946;2023-01-20T05:13:11;9.50;;;7.73;;
13975;SDS011;7062;49.792;9.946;2023-01-20T05:15:38;10.73;;;7.53;;
13975;SDS011;7062;49.792;9.946;2023-01-20T05:18:19;9.77;;;7.45;;
13975;SDS011;7062;49.792;9.946;2023-01-20T05:20:45;9.40;;;7.40;;
13975;SDS011;7062;49.792;9.946;2023-01-20T05:23:12;8.02;;;6.10;;
13975;SDS011;7062;49.792;9.946;2023-01-20T05:25:38;9.27;;;6.57;;
13975;SDS011;7062;49.792;9.946;2023-01-20T05:28:03;8.10;;;5.83;;
13975;SDS011;7062;49.792;9.946;2023-01-20T05:30:30;10.15;;;5.85;;
13975;SDS011;7062;49.792;9.946;2023-01-20T05:32:55;5.27;;;4.13;;
13975;SDS011;7062;49.792;9.946;2023-01-20T05:35:21;4.27;;;3.60;;
13975;SDS011;7062;49.792;9.946;2023-01-20T05:37:47;7.20;;;3.57;;
13975;SDS011;7062;49.792;9.946;2023-01-20T05:40:12;4.03;;;2.43;;
13975;SDS011;7062;49.792;9.946;2023-01-20T05:42:38;5.27;;;2.47;;
13975;SDS011;7062;49.792;9.946;2023-01-20T05:45:04;6.57;;;3.27;;
13975;SDS011;7062;49.792;9.946;2023-01-20T05:47:30;7.57;;;2.92;;
13975;SDS011;7062;49.792;9.946;2023-01-20T05:49:56;4.73;;;1.87;;
13975;SDS011;7062;49.792;9.946;2023-01-20T05:52:21;4.90;;;2.77;;
13975;SDS011;7062;49.792;9.946;2023-01-20T05:54:47;10.10;;;2.77;;
13975;SDS011;7062;49.792;9.946;2023-01-20T05:57:13;6.00;;;2.43;;
13975;SDS011;7062;49.792;9.946;2023-01-20T05:59:42;7.25;;;2.35;;
13975;SDS011;7062;49.792;9.946;2023-01-20T06:02:09;4.85;;;2.78;;
13975;SDS011;7062;49.792;9.946;2023-01-20T06:04:37;3.28;;;2.13;;
13975;SDS011;7062;49.792;9.946;2023-01-20T06:07:02;5.37;;;2.33;;
13975;SDS011;7062;49.792;9.946;2023-01-20T06:09:28;9.03;;;2.27;;
13975;SDS011;7062;49.792;9.946;2023-01-20T06:11:53;5.67;;;2.37;;
13975;SDS011;7062;49.792;9.946;2023-01-20T06:14:19;5.60;;;2.57;;
13975;SDS011;7062;49.792;9.946;2023-01-20T06:16:45;4.77;;;2.63;;
13975;SDS011;7062;49.792;9.946;2023-01-20T06:19:10;6.67;;;2.63;;
13975;SDS011;7062;49.792;9.946;2023-01-20T06:21:36;7.67;;;3.53;;
13975;SDS011;7062;49.792;9.946;2023-01-20T06:24:02;4.37;;;2.63;;
13975;SDS011;7062;49.792;9.946;2023-01-20T06:26:27;5.63;;;3.23;;
13975;SDS011;7062;49.792;9.946;2023-01-20T06:28:56;10.07;;;3.43;;
13975;SDS011;7062;49.792;9.946;2023-01-20T06:31:23;7.65;;;4.05;;
13975;SDS011;7062;49.792;9.946;2023-01-20T06:33:49;5.90;;;3.43;;
13975;SDS011;7062;49.792;9.946;2023-01-20T06:36:14;7.23;;;3.80;;
13975;SDS011;7062;49.792;9.946;2023-01-20T06:38:41;5.80;;;4.57;;
13975;SDS011;7062;49.792;9.946;2023-01-20T06:41:12;8.05;;;5.50;;
13975;SDS011;7062;49.792;9.946;2023-01-20T06:43:38;8.00;;;5.73;;
13975;SDS011;7062;49.792;9.946;2023-01-20T06:46:08;8.27;;;6.05;;
13975;SDS011;7062;49.792;9.946;2023-01-20T06:48:37;10.95;;;5.43;;
13975;SDS011;7062;49.792;9.946;2023-01-20T06:51:03;7.17;;;6.37;;
13975;SDS011;7062;49.792;9.946;2023-01-20T06:53:36;6.90;;;5.50;;
13975;SDS011;7062;49.792;9.946;2023-01-20T06:56:02;8.37;;;6.50;;
13975;SDS011;7062;49.792;9.946;2023-01-20T06:58:29;6.57;;;5.70;;
13975;SDS011;7062;49.792;9.946;2023-01-20T07:00:55;7.22;;;5.82;;
13975;SDS011;7062;49.792;9.946;2023-01-20T07:03:22;8.85;;;6.45;;
13975;SDS011;7062;49.792;9.946;2023-01-20T07:05:52;8.63;;;6.35;;
13975;SDS011;7062;49.792;9.946;2023-01-20T07:08:22;10.85;;;7.55;;
13975;SDS011;7062;49.792;9.946;2023-01-20T07:10:48;9.67;;;6.40;;
13975;SDS011;7062;49.792;9.946;2023-01-20T07:13:13;10.93;;;7.67;;
13975;SDS011;7062;49.792;9.946;2023-01-20T07:15:39;12.17;;;8.07;;
13975;SDS011;7062;49.792;9.946;2023-01-20T07:18:04;12.80;;;8.20;;
13975;SDS011;7062;49.792;9.946;2023-01-20T07:20:30;11.10;;;9.70;;
13975;SDS011;7062;49.792;9.946;2023-01-20T07:22:58;14.87;;;9.40;;
13975;SDS011;7062;49.792;9.946;2023-01-20T07:25:24;15.15;;;9.63;;
13975;SDS011;7062;49.792;9.946;2023-01-20T07:27:50;14.17;;;10.47;;
13975;SDS011;7062;49.792;9.946;2023-01-20T07:30:15;12.73;;;10.97;;
13975;SDS011;7062;49.792;9.946;2023-01-20T07:32:41;14.67;;;10.63;;
13975;SDS011;7062;49.792;9.946;2023-01-20T07:35:07;17.10;;;13.40;;
13975;SDS011;7062;49.792;9.946;2023-01-20T07:37:33;14.73;;;12.63;;
13975;SDS011;7062;49.792;9.946;2023-01-20T07:39:59;14.52;;;12.05;;
13975;SDS011;7062;49.792;9.946;2023-01-20T07:42:25;14.77;;;13.23;;
13975;SDS011;7062;49.792;9.946;2023-01-20T07:44:50;15.53;;;13.93;;
13975;SDS011;7062;49.792;9.946;2023-01-20T07:47:16;18.27;;;13.77;;
13975;SDS011;7062;49.792;9.946;2023-01-20T07:49:41;21.13;;;14.83;;
13975;SDS011;7062;49.792;9.946;2023-01-20T07:52:07;18.27;;;14.63;;
13975;SDS011;7062;49.792;9.946;2023-01-20T07:54:33;20.13;;;14.77;;
13975;SDS011;7062;49.792;9.946;2023-01-20T07:56:59;18.23;;;15.53;;
13975;SDS011;7062;49.792;9.946;2023-01-20T07:59:24;20.00;;;16.60;;
13975;SDS011;7062;49.792;9.946;2023-01-20T08:01:50;23.33;;;16.98;;
13975;SDS011;7062;49.792;9.946;2023-01-20T08:04:16;21.80;;;16.70;;
13975;SDS011;7062;49.792;9.946;2023-01-20T08:06:42;24.02;;;15.25;;
13975;SDS011;7062;49.792;9.946;2023-01-20T08:09:08;20.97;;;16.67;;
13975;SDS011;7062;49.792;9.946;2023-01-20T08:11:36;21.00;;;15.65;;
13975;SDS011;7062;49.792;9.946;2023-01-20T08:14:02;22.67;;;16.35;;
13975;SDS011;7062;49.792;9.946;2023-01-20T08:16:28;21.97;;;16.23;;
13975;SDS011;7062;49.792;9.946;2023-01-20T08:18:54;23.87;;;16.90;;
13975;SDS011;7062;49.792;9.946;2023-01-20T08:21:23;27.20;;;17.03;;
13975;SDS011;7062;49.792;9.946;2023-01-20T08:23:50;19.48;;;16.50;;
13975;SDS011;7062;49.792;9.946;2023-01-20T08:26:18;21.58;;;15.98;;
13975;SDS011;7062;49.792;9.946;2023-01-20T08:28:44;24.70;;;17.33;;
13975;SDS011;7062;49.792;9.946;2023-01-20T08:31:11;20.63;;;15.85;;
13975;SDS011;7062;49.792;9.946;2023-01-20T08:33:39;19.13;;;16.00;;
13975;SDS011;7062;49.792;9.946;2023-01-20T08:36:18;20.67;;;15.65;;
13975;SDS011;7062;49.792;9.946;2023-01-20T08:38:53;20.52;;;15.88;;
13975;SDS011;7062;49.792;9.946;2023-01-20T08:41:21;18.83;;;15.70;;
13975;SDS011;7062;49.792;9.946;2023-01-20T08:43:49;22.25;;;16.08;;
13975;SDS011;7062;49.792;9.946;2023-01-20T08:46:16;17.42;;;14.10;;
13975;SDS011;7062;49.792;9.946;2023-01-20T08:48:43;24.58;;;16.00;;
13975;SDS011;7062;49.792;9.946;2023-01-20T08:51:13;20.38;;;15.43;;
13975;SDS011;7062;49.792;9.946;2023-01-20T08:53:43;20.33;;;15.85;;
13975;SDS011;7062;49.792;9.946;2023-01-20T08:56:10;22.43;;;15.13;;
13975;SDS011;7062;49.792;9.946;2023-01-20T08:58:36;16.10;;;14.40;;
13975;SDS011;7062;49.792;9.946;2023-01-20T09:04:00;22.30;;;14.70;;
13975;SDS011;7062;49.792;9.946;2023-01-20T09:06:26;23.08;;;14.60;;
13975;SDS011;7062;49.792;9.946;2023-01-20T09:08:52;18.20;;;14.67;;
13975;SDS011;7062;49.792;9.946;2023-01-20T09:11:20;21.52;;;15.30;;
13975;SDS011;7062;49.792;9.946;2023-01-20T09:13:46;21.30;;;15.88;;
13975;SDS011;7062;49.792;9.946;2023-01-20T09:16:13;20.17;;;15.13;;
13975;SDS011;7062;49.792;9.946;2023-01-20T09:18:40;19.52;;;16.38;;
13975;SDS011;7062;49.792;9.946;2023-01-20T09:21:06;19.27;;;14.87;;
13975;SDS011;7062;49.792;9.946;2023-01-20T09:23:35;19.13;;;16.27;;
13975;SDS011;7062;49.792;9.946;2023-01-20T09:26:03;19.58;;;16.50;;
13975;SDS011;7062;49.792;9.946;2023-01-20T09:28:30;21.23;;;15.57;;
13975;SDS011;7062;49.792;9.946;2023-01-20T09:30:57;21.23;;;15.70;;
13975;SDS011;7062;49.792;9.946;2023-01-20T09:33:23;21.05;;;16.00;;
13975;SDS011;7062;49.792;9.946;2023-01-20T09:35:55;18.90;;;14.20;;
13975;SDS011;7062;49.792;9.946;2023-01-20T09:38:22;20.50;;;14.90;;
13975;SDS011;7062;49.792;9.946;2023-01-20T09:44:11;17.08;;;14.73;;
13975;SDS011;7062;49.792;9.946;2023-01-20T09:52:59;14.57;;;10.63;;
13975;SDS011;7062;49.792;9.946;2023-01-20T09:55:42;18.42;;;11.60;;
13975;SDS011;7062;49.792;9.946;2023-01-20T09:58:19;14.50;;;11.80;;
13975;SDS011;7062;49.792;9.946;2023-01-20T10:03:33;15.30;;;12.25;;
13975;SDS011;7062;49.792;9.946;2023-01-20T10:06:08;16.98;;;12.52;;
13975;SDS011;7062;49.792;9.946;2023-01-20T10:11:20;15.63;;;12.90;;
13975;SDS011;7062;49.792;9.946;2023-01-20T10:13:54;15.70;;;13.55;;
13975;SDS011;7062;49.792;9.946;2023-01-20T10:19:03;17.38;;;14.25;;
13975;SDS011;7062;49.792;9.946;2023-01-20T10:21:40;19.23;;;15.23;;
13975;SDS011;7062;49.792;9.946;2023-01-20T10:24:23;21.98;;;16.65;;
13975;SDS011;7062;49.792;9.946;2023-01-20T10:27:01;25.00;;;16.95;;
13975;SDS011;7062;49.792;9.946;2023-01-20T10:29:38;18.83;;;16.42;;
13975;SDS011;7062;49.792;9.946;2023-01-20T10:34:57;18.73;;;14.88;;
13975;SDS011;7062;49.792;9.946;2023-01-20T10:37:27;16.88;;;15.10;;
13975;SDS011;7062;49.792;9.946;2023-01-20T10:39:55;23.42;;;15.77;;
13975;SDS011;7062;49.792;9.946;2023-01-20T10:42:31;16.88;;;14.70;;
13975;SDS011;7062;49.792;9.946;2023-01-20T10:44:58;19.42;;;15.23;;
13975;SDS011;7062;49.792;9.946;2023-01-20T10:56:12;18.10;;;14.02;;
13975;SDS011;7062;49.792;9.946;2023-01-20T10:59:17;19.20;;;12.63;;
13975;SDS011;7062;49.792;9.946;2023-01-20T11:01:54;16.63;;;12.95;;
13975;SDS011;7062;49.792;9.946;2023-01-20T11:04:26;13.60;;;11.88;;
13975;SDS011;7062;49.792;9.946;2023-01-20T11:06:54;15.35;;;12.77;;
13975;SDS011;7062;49.792;9.946;2023-01-20T11:09:31;17.85;;;14.27;;
13975;SDS011;7062;49.792;9.946;2023-01-20T11:12:01;17.83;;;14.27;;
13975;SDS011;7062;49.792;9.946;2023-01-20T11:14:28;18.98;;;15.45;;
13975;SDS011;7062;49.792;9.946;2023-01-20T11:17:02;18.17;;;13.55;;
13975;SDS011;7062;49.792;9.946;2023-01-20T11:19:48;18.58;;;13.60;;
13975;SDS011;7062;49.792;9.946;2023-01-20T11:22:23;16.92;;;12.93;;
13975;SDS011;7062;49.792;9.946;2023-01-20T11:24:52;23.42;;;15.15;;
13975;SDS011;7062;49.792;9.946;2023-01-20T11:27:21;15.50;;;13.63;;
13975;SDS011;7062;49.792;9.946;2023-01-20T11:29:52;22.02;;;13.73;;
13975;SDS011;7062;49.792;9.946;2023-01-20T11:34:57;19.67;;;15.85;;
13975;SDS011;7062;49.792;9.946;2023-01-20T11:37:25;18.13;;;14.73;;
13975;SDS011;7062;49.792;9.946;2023-01-20T11:40:00;22.13;;;14.50;;
13975;SDS011;7062;49.792;9.946;2023-01-20T11:42:29;18.05;;;14.00;;
13975;SDS011;7062;49.792;9.946;2023-01-20T11:45:39;17.25;;;14.38;;
13975;SDS011;7062;49.792;9.946;2023-01-20T11:48:14;22.45;;;14.38;;
13975;SDS011;7062;49.792;9.946;2023-01-20T11:50:48;16.27;;;13.90;;
13975;SDS011;7062;49.792;9.946;2023-01-20T11:55:47;16.38;;;13.52;;
13975;SDS011;7062;49.792;9.946;2023-01-20T11:58:17;19.35;;;14.85;;
13975;SDS011;7062;49.792;9.946;2023-01-20T12:00:46;18.77;;;14.10;;
13975;SDS011;7062;49.792;9.946;2023-01-20T12:08:54;15.85;;;14.13;;
13975;SDS011;7062;49.792;9.946;2023-01-20T12:11:39;17.92;;;13.52;;
13975;SDS011;7062;49.792;9.946;2023-01-20T12:14:19;15.73;;;13.60;;
13975;SDS011;7062;49.792;9.946;2023-01-20T12:19:34;15.88;;;12.98;;
13975;SDS011;7062;49.792;9.946;2023-01-20T12:22:20;15.27;;;13.68;;
13975;SDS011;7062;49.792;9.946;2023-01-20T12:24:57;16.45;;;13.00;;
13975;SDS011;7062;49.792;9.946;2023-01-20T12:27:31;14.88;;;13.20;;
13975;SDS011;7062;49.792;9.946;2023-01-20T12:30:02;19.25;;;12.63;;
13975;SDS011;7062;49.792;9.946;2023-01-20T12:32:31;15.70;;;12.82;;
13975;SDS011;7062;49.792;9.946;2023-01-20T12:34:57;14.93;;;12.98;;
13975;SDS011;7062;49.792;9.946;2023-01-20T12:45:48;16.83;;;13.43;;
13975;SDS011;7062;49.792;9.946;2023-01-20T12:48:37;15.50;;;13.30;;
13975;SDS011;7062;49.792;9.946;2023-01-20T12:57:24;14.65;;;12.65;;
13975;SDS011;7062;49.792;9.946;2023-01-20T13:00:18;15.45;;;13.73;;
13975;SDS011;7062;49.792;9.946;2023-01-20T13:08:31;20.00;;;13.13;;
13975;SDS011;7062;49.792;9.946;2023-01-20T13:11:04;20.77;;;14.70;;
13975;SDS011;7062;49.792;9.946;2023-01-20T13:16:16;16.05;;;13.25;;
13975;SDS011;7062;49.792;9.946;2023-01-20T13:18:52;17.17;;;14.25;;
13975;SDS011;7062;49.792;9.946;2023-01-20T13:21:31;18.92;;;13.85;;
13975;SDS011;7062;49.792;9.946;2023-01-20T13:23:58;17.88;;;14.60;;
13975;SDS011;7062;49.792;9.946;2023-01-20T13:26:27;16.10;;;13.57;;
13975;SDS011;7062;49.792;9.946;2023-01-20T13:28:54;14.80;;;12.55;;
13975;SDS011;7062;49.792;9.946;2023-01-20T13:31:28;16.75;;;13.30;;
13975;SDS011;7062;49.792;9.946;2023-01-20T13:33:55;19.17;;;14.65;;
13975;SDS011;7062;49.792;9.946;2023-01-20T13:42:15;17.00;;;13.65;;
13975;SDS011;7062;49.792;9.946;2023-01-20T13:47:50;16.33;;;14.20;;
13975;SDS011;7062;49.792;9.946;2023-01-20T13:55:52;20.42;;;16.10;;
13975;SDS011;7062;49.792;9.946;2023-01-20T14:00:49;19.17;;;15.80;;
13975;SDS011;7062;49.792;9.946;2023-01-20T14:05:55;20.15;;;17.30;;
13975;SDS011;7062;49.792;9.946;2023-01-20T14:08:23;20.88;;;16.05;;
13975;SDS011;7062;49.792;9.946;2023-01-20T14:10:50;18.95;;;16.55;;
13975;SDS011;7062;49.792;9.946;2023-01-20T14:13:26;18.35;;;15.40;;
13975;SDS011;7062;49.792;9.946;2023-01-20T14:15:53;16.83;;;13.30;;
13975;SDS011;7062;49.792;9.946;2023-01-20T14:18:23;21.98;;;16.10;;
13975;SDS011;7062;49.792;9.946;2023-01-20T14:20:58;15.45;;;12.43;;
13975;SDS011;7062;49.792;9.946;2023-01-20T14:23:50;19.67;;;14.93;;
13975;SDS011;7062;49.792;9.946;2023-01-20T14:26:25;19.20;;;13.70;;
13975;SDS011;7062;49.792;9.946;2023-01-20T14:28:57;19.20;;;14.13;;
13975;SDS011;7062;49.792;9.946;2023-01-20T14:36:50;13.48;;;12.07;;
13975;SDS011;7062;49.792;9.946;2023-01-20T14:39:18;14.15;;;12.43;;
13975;SDS011;7062;49.792;9.946;2023-01-20T14:41:49;15.27;;;12.47;;
13975;SDS011;7062;49.792;9.946;2023-01-20T14:44:19;15.50;;;13.20;;
13975;SDS011;7062;49.792;9.946;2023-01-20T14:46:47;18.03;;;14.03;;
13975;SDS011;7062;49.792;9.946;2023-01-20T14:49:16;17.27;;;15.48;;
13975;SDS011;7062;49.792;9.946;2023-01-20T14:51:44;16.27;;;14.15;;
13975;SDS011;7062;49.792;9.946;2023-01-20T14:57:02;17.38;;;13.70;;
13975;SDS011;7062;49.792;9.946;2023-01-20T15:00:29;16.42;;;14.05;;
13975;SDS011;7062;49.792;9.946;2023-01-20T15:02:35;16.75;;;13.60;;
13975;SDS011;7062;49.792;9.946;2023-01-20T15:05:51;18.80;;;14.25;;
13975;SDS011;7062;49.792;9.946;2023-01-20T15:08:05;18.98;;;13.73;;
13975;SDS011;7062;49.792;9.946;2023-01-20T15:10:40;18.85;;;14.98;;
13975;SDS011;7062;49.792;9.946;2023-01-20T15:13:25;18.33;;;14.45;;
13975;SDS011;7062;49.792;9.946;2023-01-20T15:16:04;18.80;;;15.30;;
13975;SDS011;7062;49.792;9.946;2023-01-20T15:18:31;19.10;;;14.88;;
13975;SDS011;7062;49.792;9.946;2023-01-20T15:20:57;21.70;;;15.40;;
13975;SDS011;7062;49.792;9.946;2023-01-20T15:23:46;20.85;;;15.40;;
13975;SDS011;7062;49.792;9.946;2023-01-20T15:26:25;22.00;;;14.23;;
13975;SDS011;7062;49.792;9.946;2023-01-20T15:28:53;22.42;;;15.68;;
13975;SDS011;7062;49.792;9.946;2023-01-20T15:31:20;21.02;;;15.32;;
13975;SDS011;7062;49.792;9.946;2023-01-20T15:33:46;20.17;;;14.57;;
13975;SDS011;7062;49.792;9.946;2023-01-20T15:38:40;21.73;;;15.68;;
13975;SDS011;7062;49.792;9.946;2023-01-20T15:41:07;22.20;;;16.80;;
13975;SDS011;7062;49.792;9.946;2023-01-20T15:43:35;24.40;;;17.10;;
13975;SDS011;7062;49.792;9.946;2023-01-20T15:46:01;26.27;;;19.33;;
13975;SDS011;7062;49.792;9.946;2023-01-20T15:48:26;23.67;;;18.33;;
13975;SDS011;7062;49.792;9.946;2023-01-20T15:50:52;22.17;;;16.17;;
13975;SDS011;7062;49.792;9.946;2023-01-20T15:53:18;24.93;;;17.20;;
13975;SDS011;7062;49.792;9.946;2023-01-20T15:55:47;24.30;;;16.60;;
13975;SDS011;7062;49.792;9.946;2023-01-20T15:58:35;23.08;;;16.45;;
13975;SDS011;7062;49.792;9.946;2023-01-20T16:01:00;24.30;;;16.42;;
13975;SDS011;7062;49.792;9.946;2023-01-20T16:03:26;21.17;;;16.33;;
13975;SDS011;7062;49.792;9.946;2023-01-20T16:05:52;21.70;;;16.60;;
13975;SDS011;7062;49.792;9.946;2023-01-20T16:08:24;25.05;;;17.15;;
13975;SDS011;7062;49.792;9.946;2023-01-20T16:10:57;24.05;;;16.17;;
13975;SDS011;7062;49.792;9.946;2023-01-20T16:13:23;24.37;;;17.67;;
13975;SDS011;7062;49.792;9.946;2023-01-20T16:15:48;22.43;;;16.30;;
13975;SDS011;7062;49.792;9.946;2023-01-20T16:18:15;23.50;;;16.67;;
13975;SDS011;7062;49.792;9.946;2023-01-20T16:20:42;23.55;;;17.13;;
13975;SDS011;7062;49.792;9.946;2023-01-20T16:23:09;24.08;;;17.55;;
13975;SDS011;7062;49.792;9.946;2023-01-20T16:25:36;23.15;;;16.23;;
13975;SDS011;7062;49.792;9.946;2023-01-20T16:28:12;24.30;;;16.08;;
13975;SDS011;7062;49.792;9.946;2023-01-20T16:30:52;24.85;;;17.42;;
13975;SDS011;7062;49.792;9.946;2023-01-20T16:33:19;24.27;;;17.90;;
13975;SDS011;7062;49.792;9.946;2023-01-20T16:35:50;28.73;;;17.40;;
13975;SDS011;7062;49.792;9.946;2023-01-20T16:38:20;22.10;;;16.77;;
13975;SDS011;7062;49.792;9.946;2023-01-20T16:43:40;20.17;;;15.88;;
13975;SDS011;7062;49.792;9.946;2023-01-20T16:46:09;23.13;;;15.35;;
13975;SDS011;7062;49.792;9.946;2023-01-20T16:48:37;22.75;;;16.88;;
13975;SDS011;7062;49.792;9.946;2023-01-20T16:51:03;22.67;;;16.60;;
13975;SDS011;7062;49.792;9.946;2023-01-20T16:53:30;22.98;;;17.38;;
13975;SDS011;7062;49.792;9.946;2023-01-20T16:55:56;25.75;;;17.42;;
13975;SDS011;7062;49.792;9.946;2023-01-20T16:58:22;23.70;;;16.33;;
13975;SDS011;7062;49.792;9.946;2023-01-20T17:00:48;22.23;;;17.20;;
13975;SDS011;7062;49.792;9.946;2023-01-20T17:03:13;25.03;;;17.37;;
13975;SDS011;7062;49.792;9.946;2023-01-20T17:05:39;24.93;;;17.20;;
13975;SDS011;7062;49.792;9.946;2023-01-20T17:08:05;26.95;;;16.17;;
13975;SDS011;7062;49.792;9.946;2023-01-20T17:10:31;27.70;;;17.83;;